sensor_id;sensor_type;location;lat;lon;timestamp;pressure;altitude;pressure_sealevel;temperature;humidity
10852;BME280;5479;52.046;6.314;2023-03-15T00:01:14;101052.88;;;1.01;100.00
10852;BME280;5479;52.046;6.314;2023-03-15T00:03:44;101055.53;;;0.97;100.00
10852;BME280;5479;52.046;6.314;2023-03-15T00:06:13;101058.09;;;1.01;100.00
10852;BME280;5479;52.046;6.314;2023-03-15T00:08:42;101071.97;;;1.02;100.00
10852;BME280;5479;52.046;6.314;2023-03-15T00:11:13;101065.00;;;1.02;100.00
10852;BME280;5479;52.046;6.314;2023-03-15T00:13:41;101065.00;;;1.02;100.00
10852;BME280;5479;52.046;6.314;2023-03-15T00:16:10;101059.75;;;1.05;100.00
10852;BME280;5479;52.046;6.314;2023-03-15T00:18:44;101064.81;;;1.14;100.00
10852;BME280;5479;52.046;6.314;2023-03-15T00:21:12;101068.25;;;1.16;100.00
10852;BME280;5479;52.046;6.314;2023-03-15T00:23:42;101071.69;;;1.20;100.00
10852;BME280;5479;52.046;6.314;2023-03-15T00:26:10;101070.03;;;1.14;100.00
10852;BME280;5479;52.046;6.314;2023-03-15T00:28:38;101074.41;;;1.12;100.00
10852;BME280;5479;52.046;6.314;2023-03-15T00:31:08;101075.31;;;1.10;100.00
10852;BME280;5479;52.046;6.314;2023-03-15T00:33:39;101079.47;;;1.23;100.00
10852;BME280;5479;52.046;6.314;2023-03-15T00:36:08;101075.88;;;1.29;100.00
10852;BME280;5479;52.046;6.314;2023-03-15T00:38:38;101080.25;;;1.28;100.00
10852;BME280;5479;52.046;6.314;2023-03-15T00:41:09;101068.91;;;1.29;100.00
10852;BME280;5479;52.046;6.314;2023-03-15T00:43:37;101074.06;;;1.34;100.00
10852;BME280;5479;52.046;6.314;2023-03-15T00:46:05;101076.44;;;1.46;100.00
10852;BME280;5479;52.046;6.314;2023-03-15T00:48:34;101067.84;;;1.39;100.00
10852;BME280;5479;52.046;6.314;2023-03-15T00:51:04;101074.66;;;1.49;100.00
10852;BME280;5479;52.046;6.314;2023-03-15T00:53:33;101071.19;;;1.49;100.00
10852;BME280;5479;52.046;6.314;2023-03-15T00:56:07;101081.63;;;1.49;100.00
10852;BME280;5479;52.046;6.314;2023-03-15T00:58:36;101094.53;;;1.56;100.00
10852;BME280;5479;52.046;6.314;2023-03-15T01:01:06;101080.59;;;1.57;100.00
10852;BME280;5479;52.046;6.314;2023-03-15T01:03:34;101086.78;;;1.52;100.00
10852;BME280;5479;52.046;6.314;2023-03-15T01:06:06;101085.78;;;1.59;100.00
10852;BME280;5479;52.046;6.314;2023-03-15T01:08:34;101090.28;;;1.51;100.00
10852;BME280;5479;52.046;6.314;2023-03-15T01:11:03;101085.09;;;1.49;100.00
10852;BME280;5479;52.046;6.314;2023-03-15T01:13:33;101094.63;;;1.52;100.00
10852;BME280;5479;52.046;6.314;2023-03-15T01:16:01;101099.00;;;1.50;100.00
10852;BME280;5479;52.046;6.314;2023-03-15T01:18:29;101087.56;;;1.57;100.00
10852;BME280;5479;52.046;6.314;2023-03-15T01:20:58;101085.75;;;1.60;100.00
10852;BME280;5479;52.046;6.314;2023-03-15T01:23:26;101089.41;;;1.52;100.00
10852;BME280;5479;52.046;6.314;2023-03-15T01:25:54;101101.53;;;1.53;100.00
10852;BME280;5479;52.046;6.314;2023-03-15T01:28:22;101095.44;;;1.54;100.00
10852;BME280;5479;52.046;6.314;2023-03-15T01:30:52;101101.56;;;1.51;100.00
10852;BME280;5479;52.046;6.314;2023-03-15T01:33:20;101105.13;;;1.47;100.00
10852;BME280;5479;52.046;6.314;2023-03-15T01:35:57;101104.28;;;1.47;100.00
10852;BME280;5479;52.046;6.314;2023-03-15T01:38:25;101110.34;;;1.47;100.00
10852;BME280;5479;52.046;6.314;2023-03-15T01:40:53;101114.72;;;1.45;100.00
10852;BME280;5479;52.046;6.314;2023-03-15T01:43:22;101116.38;;;1.51;100.00
10852;BME280;5479;52.046;6.314;2023-03-15T01:48:54;101132.06;;;1.48;100.00
10852;BME280;5479;52.046;6.314;2023-03-15T01:51:26;101128.50;;;1.55;100.00
10852;BME280;5479;52.046;6.314;2023-03-15T01:53:58;101126.75;;;1.54;100.00
10852;BME280;5479;52.046;6.314;2023-03-15T01:56:27;101118.78;;;1.61;100.00
10852;BME280;5479;52.046;6.314;2023-03-15T01:58:58;101130.00;;;1.68;100.00
10852;BME280;5479;52.046;6.314;2023-03-15T02:01:29;101142.16;;;1.69;100.00
10852;BME280;5479;52.046;6.314;2023-03-15T02:04:03;101126.66;;;1.60;100.00
10852;BME280;5479;52.046;6.314;2023-03-15T02:06:34;101135.22;;;1.68;100.00
10852;BME280;5479;52.046;6.314;2023-03-15T02:09:05;101135.22;;;1.68;100.00
10852;BME280;5479;52.046;6.314;2023-03-15T02:11:34;101135.22;;;1.68;100.00
10852;BME280;5479;52.046;6.314;2023-03-15T02:14:04;101136.00;;;1.71;100.00
10852;BME280;5479;52.046;6.314;2023-03-15T02:16:34;101136.00;;;1.71;100.00
10852;BME280;5479;52.046;6.314;2023-03-15T02:19:03;101137.16;;;1.57;100.00
10852;BME280;5479;52.046;6.314;2023-03-15T02:21:40;101138.88;;;1.58;100.00
10852;BME280;5479;52.046;6.314;2023-03-15T02:24:18;101142.19;;;1.66;100.00
10852;BME280;5479;52.046;6.314;2023-03-15T02:26:52;101150.13;;;1.61;100.00
10852;BME280;5479;52.046;6.314;2023-03-15T02:29:23;101148.41;;;1.60;100.00
10852;BME280;5479;52.046;6.314;2023-03-15T02:31:52;101152.91;;;1.51;100.00
10852;BME280;5479;52.046;6.314;2023-03-15T02:34:22;101159.81;;;1.55;100.00
10852;BME280;5479;52.046;6.314;2023-03-15T02:36:51;101158.19;;;1.48;100.00
10852;BME280;5479;52.046;6.314;2023-03-15T02:39:22;101156.25;;;1.59;100.00
10852;BME280;5479;52.046;6.314;2023-03-15T02:41:52;101165.81;;;1.58;100.00
10852;BME280;5479;52.046;6.314;2023-03-15T02:44:26;101165.72;;;1.64;100.00
10852;BME280;5479;52.046;6.314;2023-03-15T02:46:58;101162.09;;;1.73;100.00
10852;BME280;5479;52.046;6.314;2023-03-15T02:49:30;101170.81;;;1.72;100.00
10852;BME280;5479;52.046;6.314;2023-03-15T02:51:59;101174.44;;;1.65;100.00
10852;BME280;5479;52.046;6.314;2023-03-15T02:54:27;101175.16;;;1.73;100.00
10852;BME280;5479;52.046;6.314;2023-03-15T02:56:55;101175.97;;;1.75;100.00
10852;BME280;5479;52.046;6.314;2023-03-15T02:59:24;101187.25;;;1.77;100.00
10852;BME280;5479;52.046;6.314;2023-03-15T03:01:53;101189.97;;;1.72;100.00
10852;BME280;5479;52.046;6.314;2023-03-15T03:04:21;101188.25;;;1.70;100.00
10852;BME280;5479;52.046;6.314;2023-03-15T03:06:49;101199.72;;;1.63;100.00
10852;BME280;5479;52.046;6.314;2023-03-15T03:09:17;101207.50;;;1.64;100.00
10852;BME280;5479;52.046;6.314;2023-03-15T03:11:45;101205.00;;;1.57;100.00
10852;BME280;5479;52.046;6.314;2023-03-15T03:14:13;101215.53;;;1.51;100.00
10852;BME280;5479;52.046;6.314;2023-03-15T03:16:42;101220.00;;;1.44;100.00
10852;BME280;5479;52.046;6.314;2023-03-15T03:19:10;101233.09;;;1.41;100.00
10852;BME280;5479;52.046;6.314;2023-03-15T03:21:39;101233.09;;;1.40;100.00
10852;BME280;5479;52.046;6.314;2023-03-15T03:24:09;101240.84;;;1.46;100.00
10852;BME280;5479;52.046;6.314;2023-03-15T03:26:37;101240.03;;;1.44;100.00
10852;BME280;5479;52.046;6.314;2023-03-15T03:29:07;101243.38;;;1.50;100.00
10852;BME280;5479;52.046;6.314;2023-03-15T03:31:35;101248.75;;;1.40;100.00
10852;BME280;5479;52.046;6.314;2023-03-15T03:34:04;101252.34;;;1.33;100.00
10852;BME280;5479;52.046;6.314;2023-03-15T03:36:32;101263.66;;;1.32;100.00
10852;BME280;5479;52.046;6.314;2023-03-15T03:39:00;101267.91;;;1.42;100.00
10852;BME280;5479;52.046;6.314;2023-03-15T03:41:28;101274.00;;;1.39;100.00
10852;BME280;5479;52.046;6.314;2023-03-15T03:43:56;101272.13;;;1.47;100.00
10852;BME280;5479;52.046;6.314;2023-03-15T03:46:24;101271.25;;;1.50;100.00
10852;BME280;5479;52.046;6.314;2023-03-15T03:48:54;101280.78;;;1.51;100.00
10852;BME280;5479;52.046;6.314;2023-03-15T03:51:23;101278.22;;;1.48;100.00
10852;BME280;5479;52.046;6.314;2023-03-15T03:53:51;101283.53;;;1.43;100.00
10852;BME280;5479;52.046;6.314;2023-03-15T03:56:19;101284.38;;;1.42;100.00
10852;BME280;5479;52.046;6.314;2023-03-15T03:58:47;101281.84;;;1.38;100.00
10852;BME280;5479;52.046;6.314;2023-03-15T04:01:15;101290.56;;;1.37;100.00
10852;BME280;5479;52.046;6.314;2023-03-15T04:03:43;101297.59;;;1.32;100.00
10852;BME280;5479;52.046;6.314;2023-03-15T04:06:11;101299.44;;;1.23;100.00
10852;BME280;5479;52.046;6.314;2023-03-15T04:08:40;101306.44;;;1.21;100.00
10852;BME280;5479;52.046;6.314;2023-03-15T04:11:08;101307.28;;;1.22;100.00
10852;BME280;5479;52.046;6.314;2023-03-15T04:13:36;101311.69;;;1.18;100.00
10852;BME280;5479;52.046;6.314;2023-03-15T04:16:05;101318.72;;;1.15;100.00
10852;BME280;5479;52.046;6.314;2023-03-15T04:18:33;101329.97;;;1.17;100.00
10852;BME280;5479;52.046;6.314;2023-03-15T04:21:01;101335.22;;;1.14;100.00
10852;BME280;5479;52.046;6.314;2023-03-15T04:23:29;101337.84;;;1.12;100.00
10852;BME280;5479;52.046;6.314;2023-03-15T04:25:58;101342.22;;;1.10;100.00
10852;BME280;5479;52.046;6.314;2023-03-15T04:28:26;101350.03;;;1.10;100.00
10852;BME280;5479;52.046;6.314;2023-03-15T04:30:55;101351.84;;;1.07;100.00
10852;BME280;5479;52.046;6.314;2023-03-15T04:33:27;101349.25;;;1.02;100.00
10852;BME280;5479;52.046;6.314;2023-03-15T04:35:55;101356.97;;;1.13;100.00
10852;BME280;5479;52.046;6.314;2023-03-15T04:38:23;101370.06;;;1.08;100.00
10852;BME280;5479;52.046;6.314;2023-03-15T04:40:52;101365.81;;;1.01;100.00
10852;BME280;5479;52.046;6.314;2023-03-15T04:43:22;101371.09;;;0.95;100.00
10852;BME280;5479;52.046;6.314;2023-03-15T04:45:50;101369.31;;;0.97;100.00
10852;BME280;5479;52.046;6.314;2023-03-15T04:48:18;101376.34;;;0.92;100.00
10852;BME280;5479;52.046;6.314;2023-03-15T04:50:46;101368.53;;;0.91;100.00
10852;BME280;5479;52.046;6.314;2023-03-15T04:53:14;101373.78;;;0.86;100.00
10852;BME280;5479;52.046;6.314;2023-03-15T04:55:42;101375.56;;;0.84;100.00
10852;BME280;5479;52.046;6.314;2023-03-15T04:58:09;101378.13;;;0.87;100.00
10852;BME280;5479;52.046;6.314;2023-03-15T05:00:39;101376.38;;;0.86;100.00
10852;BME280;5479;52.046;6.314;2023-03-15T05:03:07;101378.16;;;0.84;100.00
10852;BME280;5479;52.046;6.314;2023-03-15T05:05:37;101383.34;;;0.87;100.00
10852;BME280;5479;52.046;6.314;2023-03-15T05:08:05;101378.16;;;0.84;100.00
10852;BME280;5479;52.046;6.314;2023-03-15T05:10:33;101379.91;;;0.81;100.00
10852;BME280;5479;52.046;6.314;2023-03-15T05:13:01;101392.16;;;0.77;100.00
10852;BME280;5479;52.046;6.314;2023-03-15T05:15:29;101393.94;;;0.72;100.00
10852;BME280;5479;52.046;6.314;2023-03-15T05:17:58;101388.69;;;0.74;100.00
10852;BME280;5479;52.046;6.314;2023-03-15T05:20:26;101397.38;;;0.74;100.00
10852;BME280;5479;52.046;6.314;2023-03-15T05:22:54;101406.94;;;0.74;100.00
10852;BME280;5479;52.046;6.314;2023-03-15T05:25:22;101407.81;;;0.74;100.00
10852;BME280;5479;52.046;6.314;2023-03-15T05:27:50;101406.03;;;0.76;100.00
10852;BME280;5479;52.046;6.314;2023-03-15T05:30:18;101414.72;;;0.80;100.00
10852;BME280;5479;52.046;6.314;2023-03-15T05:32:47;101432.03;;;0.85;100.00
10852;BME280;5479;52.046;6.314;2023-03-15T05:35:16;101438.91;;;0.92;100.00
10852;BME280;5479;52.046;6.314;2023-03-15T05:37:44;101438.03;;;0.95;100.00
10852;BME280;5479;52.046;6.314;2023-03-15T05:40:12;101438.84;;;1.01;100.00
10852;BME280;5479;52.046;6.314;2023-03-15T05:42:41;101444.84;;;1.09;100.00
10852;BME280;5479;52.046;6.314;2023-03-15T05:45:09;101449.13;;;1.13;100.00
10852;BME280;5479;52.046;6.314;2023-03-15T05:47:37;101449.91;;;1.21;100.00
10852;BME280;5479;52.046;6.314;2023-03-15T05:50:06;101454.22;;;1.26;100.00
10852;BME280;5479;52.046;6.314;2023-03-15T05:52:37;101457.78;;;1.20;100.00
10852;BME280;5479;52.046;6.314;2023-03-15T05:55:06;101453.41;;;1.19;100.00
10852;BME280;5479;52.046;6.314;2023-03-15T05:57:34;101461.19;;;1.23;100.00
10852;BME280;5479;52.046;6.314;2023-03-15T06:00:02;101457.66;;;1.31;100.00
10852;BME280;5479;52.046;6.314;2023-03-15T06:02:32;101461.97;;;1.32;100.00
10852;BME280;5479;52.046;6.314;2023-03-15T06:05:00;101457.66;;;1.31;100.00
10852;BME280;5479;52.046;6.314;2023-03-15T06:07:29;101469.00;;;1.27;100.00
10852;BME280;5479;52.046;6.314;2023-03-15T06:09:58;101473.34;;;1.26;100.00
10852;BME280;5479;52.046;6.314;2023-03-15T06:12:26;101479.41;;;1.30;100.00
10852;BME280;5479;52.046;6.314;2023-03-15T06:14:54;101476.81;;;1.27;100.00
10852;BME280;5479;52.046;6.314;2023-03-15T06:17:22;101492.47;;;1.27;100.00
10852;BME280;5479;52.046;6.314;2023-03-15T06:19:49;101509.94;;;1.20;100.00
10852;BME280;5479;52.046;6.314;2023-03-15T06:22:17;101508.88;;;1.38;100.00
10852;BME280;5479;52.046;6.314;2023-03-15T06:24:46;101502.72;;;1.45;100.00
10852;BME280;5479;52.046;6.314;2023-03-15T06:27:15;101510.47;;;1.51;100.00
10852;BME280;5479;52.046;6.314;2023-03-15T06:29:47;101516.66;;;1.42;100.00
10852;BME280;5479;52.046;6.314;2023-03-15T06:32:15;101512.06;;;1.65;100.00
10852;BME280;5479;52.046;6.314;2023-03-15T06:34:43;101514.59;;;1.71;100.00
10852;BME280;5479;52.046;6.314;2023-03-15T06:37:12;101508.38;;;1.80;100.00
10852;BME280;5479;52.046;6.314;2023-03-15T06:39:41;101508.84;;;2.12;100.00
10852;BME280;5479;52.046;6.314;2023-03-15T06:42:10;101512.53;;;2.59;100.00
10852;BME280;5479;52.046;6.314;2023-03-15T06:44:41;101521.78;;;2.81;100.00
10852;BME280;5479;52.046;6.314;2023-03-15T06:47:10;101516.09;;;3.54;100.00
10852;BME280;5479;52.046;6.314;2023-03-15T06:49:38;101506.41;;;4.77;100.00
10852;BME280;5479;52.046;6.314;2023-03-15T06:52:06;101509.06;;;5.75;100.00
10852;BME280;5479;52.046;6.314;2023-03-15T06:54:34;101512.59;;;6.06;100.00
10852;BME280;5479;52.046;6.314;2023-03-15T06:57:03;101514.91;;;5.86;100.00
10852;BME280;5479;52.046;6.314;2023-03-15T06:59:31;101529.78;;;5.55;100.00
10852;BME280;5479;52.046;6.314;2023-03-15T07:02:01;101531.97;;;4.70;100.00
10852;BME280;5479;52.046;6.314;2023-03-15T07:04:29;101539.06;;;4.65;100.00
10852;BME280;5479;52.046;6.314;2023-03-15T07:06:57;101544.22;;;3.89;100.00
10852;BME280;5479;52.046;6.314;2023-03-15T07:09:25;101551.25;;;3.87;100.00
10852;BME280;5479;52.046;6.314;2023-03-15T07:11:53;101546.13;;;3.81;100.00
10852;BME280;5479;52.046;6.314;2023-03-15T07:14:21;101560.81;;;3.43;100.00
10852;BME280;5479;52.046;6.314;2023-03-15T07:16:49;101559.59;;;3.15;100.00
10852;BME280;5479;52.046;6.314;2023-03-15T07:19:18;101564.06;;;3.57;100.00
10852;BME280;5479;52.046;6.314;2023-03-15T07:21:46;101563.06;;;4.49;100.00
10852;BME280;5479;52.046;6.314;2023-03-15T07:24:14;101574.25;;;6.26;100.00
10852;BME280;5479;52.046;6.314;2023-03-15T07:26:42;101573.19;;;7.14;100.00
10852;BME280;5479;52.046;6.314;2023-03-15T07:29:11;101572.09;;;8.20;100.00
10852;BME280;5479;52.046;6.314;2023-03-15T07:31:39;101567.53;;;9.35;100.00
10852;BME280;5479;52.046;6.314;2023-03-15T07:34:07;101559.97;;;10.27;100.00
10852;BME280;5479;52.046;6.314;2023-03-15T07:36:36;101572.13;;;10.68;100.00
10852;BME280;5479;52.046;6.314;2023-03-15T07:39:04;101568.97;;;10.60;100.00
10852;BME280;5479;52.046;6.314;2023-03-15T07:41:32;101584.84;;;10.42;100.00
10852;BME280;5479;52.046;6.314;2023-03-15T07:44:00;101582.84;;;10.28;100.00
10852;BME280;5479;52.046;6.314;2023-03-15T07:46:28;101595.28;;;10.26;100.00
10852;BME280;5479;52.046;6.314;2023-03-15T07:48:56;101594.53;;;10.61;100.00
10852;BME280;5479;52.046;6.314;2023-03-15T07:51:24;101596.81;;;11.23;100.00
10852;BME280;5479;52.046;6.314;2023-03-15T07:53:53;101607.47;;;11.05;100.00
10852;BME280;5479;52.046;6.314;2023-03-15T07:56:21;101607.41;;;11.76;100.00
10852;BME280;5479;52.046;6.314;2023-03-15T07:58:49;101614.88;;;11.85;98.16
10852;BME280;5479;52.046;6.314;2023-03-15T08:01:17;101611.28;;;12.03;94.32
10852;BME280;5479;52.046;6.314;2023-03-15T08:03:45;101620.44;;;11.45;93.76
10852;BME280;5479;52.046;6.314;2023-03-15T08:06:13;101617.69;;;12.17;92.32
10852;BME280;5479;52.046;6.314;2023-03-15T08:08:41;101633.09;;;12.26;84.49
10852;BME280;5479;52.046;6.314;2023-03-15T08:11:11;101635.41;;;12.49;77.19
10852;BME280;5479;52.046;6.314;2023-03-15T08:13:39;101639.13;;;12.62;79.71
10852;BME280;5479;52.046;6.314;2023-03-15T08:16:07;101633.22;;;12.88;82.05
10852;BME280;5479;52.046;6.314;2023-03-15T08:18:35;101642.69;;;13.09;80.14
10852;BME280;5479;52.046;6.314;2023-03-15T08:21:03;101642.66;;;13.25;77.42
10852;BME280;5479;52.046;6.314;2023-03-15T08:23:31;101647.63;;;13.47;74.14
10852;BME280;5479;52.046;6.314;2023-03-15T08:25:59;101656.56;;;13.14;70.84
10852;BME280;5479;52.046;6.314;2023-03-15T08:28:28;101655.63;;;13.15;70.49
10852;BME280;5479;52.046;6.314;2023-03-15T08:30:57;101660.66;;;13.51;66.66
10852;BME280;5479;52.046;6.314;2023-03-15T08:33:25;101665.25;;;12.37;69.86
10852;BME280;5479;52.046;6.314;2023-03-15T08:35:55;101664.25;;;12.72;69.63
10852;BME280;5479;52.046;6.314;2023-03-15T08:38:23;101658.81;;;12.73;70.64
10852;BME280;5479;52.046;6.314;2023-03-15T08:40:54;101663.94;;;12.61;67.70
10852;BME280;5479;52.046;6.314;2023-03-15T08:43:23;101672.69;;;12.63;65.39
10852;BME280;5479;52.046;6.314;2023-03-15T08:45:53;101669.69;;;13.33;65.19
10852;BME280;5479;52.046;6.314;2023-03-15T08:48:20;101669.06;;;12.97;64.86
10852;BME280;5479;52.046;6.314;2023-03-15T08:50:48;101671.59;;;13.76;61.69
10852;BME280;5479;52.046;6.314;2023-03-15T08:53:16;101672.16;;;14.41;58.59
10852;BME280;5479;52.046;6.314;2023-03-15T08:55:44;101676.97;;;13.29;57.26
10852;BME280;5479;52.046;6.314;2023-03-15T08:58:12;101678.03;;;13.43;57.82
10852;BME280;5479;52.046;6.314;2023-03-15T09:00:40;101684.38;;;13.70;54.85
10852;BME280;5479;52.046;6.314;2023-03-15T09:03:09;101688.03;;;13.69;55.96
10852;BME280;5479;52.046;6.314;2023-03-15T09:05:37;101699.97;;;13.30;56.94
10852;BME280;5479;52.046;6.314;2023-03-15T09:08:05;101693.06;;;13.73;54.79
10852;BME280;5479;52.046;6.314;2023-03-15T09:10:33;101692.28;;;14.31;51.00
10852;BME280;5479;52.046;6.314;2023-03-15T09:13:02;101697.53;;;14.32;49.04
10852;BME280;5479;52.046;6.314;2023-03-15T09:15:30;101702.75;;;13.13;51.88
10852;BME280;5479;52.046;6.314;2023-03-15T09:17:58;101700.09;;;12.31;54.37
10852;BME280;5479;52.046;6.314;2023-03-15T09:20:27;101701.84;;;12.97;53.91
10852;BME280;5479;52.046;6.314;2023-03-15T09:22:56;101701.88;;;12.47;53.23
10852;BME280;5479;52.046;6.314;2023-03-15T09:25:26;101702.91;;;12.45;54.38
10852;BME280;5479;52.046;6.314;2023-03-15T09:27:54;101712.38;;;11.27;55.82
10852;BME280;5479;52.046;6.314;2023-03-15T09:30:22;101716.38;;;11.55;56.10
10852;BME280;5479;52.046;6.314;2023-03-15T09:32:50;101711.50;;;12.50;54.89
10852;BME280;5479;52.046;6.314;2023-03-15T09:35:19;101711.44;;;13.00;52.84
10852;BME280;5479;52.046;6.314;2023-03-15T09:37:49;101705.84;;;13.21;51.92
10852;BME280;5479;52.046;6.314;2023-03-15T09:40:19;101703.41;;;13.17;52.00
10852;BME280;5479;52.046;6.314;2023-03-15T09:42:56;101711.44;;;14.08;50.06
10852;BME280;5479;52.046;6.314;2023-03-15T09:45:34;101700.13;;;14.48;47.53
10852;BME280;5479;52.046;6.314;2023-03-15T09:48:10;101708.78;;;13.00;49.18
10852;BME280;5479;52.046;6.314;2023-03-15T09:50:43;101707.91;;;14.07;46.68
10852;BME280;5479;52.046;6.314;2023-03-15T09:53:17;101708.41;;;13.07;48.03
10852;BME280;5479;52.046;6.314;2023-03-15T09:55:49;101715.53;;;12.24;49.29
10852;BME280;5479;52.046;6.314;2023-03-15T09:58:20;101709.44;;;12.55;48.88
10852;BME280;5479;52.046;6.314;2023-03-15T10:00:53;101714.16;;;11.98;48.93
10852;BME280;5479;52.046;6.314;2023-03-15T10:03:26;101717.63;;;12.35;48.01
10852;BME280;5479;52.046;6.314;2023-03-15T10:05:58;101716.13;;;13.88;46.39
10852;BME280;5479;52.046;6.314;2023-03-15T10:08:30;101722.19;;;15.06;45.73
10852;BME280;5479;52.046;6.314;2023-03-15T10:11:07;101711.47;;;16.15;43.02
10852;BME280;5479;52.046;6.314;2023-03-15T10:13:47;101716.34;;;16.85;40.85
10852;BME280;5479;52.046;6.314;2023-03-15T10:16:26;101705.91;;;17.19;38.90
10852;BME280;5479;52.046;6.314;2023-03-15T10:19:05;101716.09;;;16.25;37.15
10852;BME280;5479;52.046;6.314;2023-03-15T10:21:46;101730.72;;;13.20;42.60
10852;BME280;5479;52.046;6.314;2023-03-15T10:24:21;101719.38;;;15.36;42.86
10852;BME280;5479;52.046;6.314;2023-03-15T10:26:50;101718.66;;;16.27;40.99
10852;BME280;5479;52.046;6.314;2023-03-15T10:29:23;101716.44;;;17.69;39.53
10852;BME280;5479;52.046;6.314;2023-03-15T10:31:53;101712.59;;;18.54;36.25
10852;BME280;5479;52.046;6.314;2023-03-15T10:34:21;101723.75;;;18.26;37.12
10852;BME280;5479;52.046;6.314;2023-03-15T10:36:51;101721.34;;;17.39;35.71
10852;BME280;5479;52.046;6.314;2023-03-15T10:39:23;101729.38;;;16.52;35.33
10852;BME280;5479;52.046;6.314;2023-03-15T10:41:51;101732.72;;;15.36;35.30
10852;BME280;5479;52.046;6.314;2023-03-15T10:44:23;101727.00;;;17.11;34.58
10852;BME280;5479;52.046;6.314;2023-03-15T10:47:11;101727.91;;;16.99;35.07
10852;BME280;5479;52.046;6.314;2023-03-15T10:49:40;101724.81;;;18.58;34.67
10852;BME280;5479;52.046;6.314;2023-03-15T10:52:25;101720.25;;;19.58;32.67
10852;BME280;5479;52.046;6.314;2023-03-15T10:54:55;101728.81;;;19.63;31.35
10852;BME280;5479;52.046;6.314;2023-03-15T10:57:27;101715.28;;;20.59;31.48
10852;BME280;5479;52.046;6.314;2023-03-15T10:59:58;101727.28;;;19.39;30.59
10852;BME280;5479;52.046;6.314;2023-03-15T11:02:32;101729.28;;;20.00;30.96
10852;BME280;5479;52.046;6.314;2023-03-15T11:05:02;101746.06;;;19.61;30.11
10852;BME280;5479;52.046;6.314;2023-03-15T11:07:33;101741.91;;;16.89;32.34
10852;BME280;5479;52.046;6.314;2023-03-15T11:10:05;101742.88;;;16.88;33.79
10852;BME280;5479;52.046;6.314;2023-03-15T11:12:33;101752.72;;;16.63;33.62
10852;BME280;5479;52.046;6.314;2023-03-15T11:15:04;101751.41;;;16.94;31.82
10852;BME280;5479;52.046;6.314;2023-03-15T11:17:35;101748.19;;;17.50;32.11
10852;BME280;5479;52.046;6.314;2023-03-15T11:20:25;101750.81;;;19.24;30.78
10852;BME280;5479;52.046;6.314;2023-03-15T11:22:56;101744.56;;;19.68;30.60
10852;BME280;5479;52.046;6.314;2023-03-15T11:25:29;101740.28;;;20.50;28.98
10852;BME280;5479;52.046;6.314;2023-03-15T11:27:59;101744.09;;;19.18;29.78
10852;BME280;5479;52.046;6.314;2023-03-15T11:30:29;101749.47;;;19.52;30.41
10852;BME280;5479;52.046;6.314;2023-03-15T11:33:02;101756.56;;;19.31;29.75
10852;BME280;5479;52.046;6.314;2023-03-15T11:35:35;101761.38;;;18.48;32.33
10852;BME280;5479;52.046;6.314;2023-03-15T11:38:11;101746.66;;;18.19;31.74
10852;BME280;5479;52.046;6.314;2023-03-15T11:40:44;101758.91;;;16.88;33.17
10852;BME280;5479;52.046;6.314;2023-03-15T11:43:17;101758.53;;;17.31;34.69
10852;BME280;5479;52.046;6.314;2023-03-15T11:45:50;101765.81;;;17.78;34.14
10852;BME280;5479;52.046;6.314;2023-03-15T11:48:25;101762.56;;;17.85;32.09
10852;BME280;5479;52.046;6.314;2023-03-15T11:50:55;101764.19;;;15.45;33.73
10852;BME280;5479;52.046;6.314;2023-03-15T11:53:28;101761.59;;;16.11;35.78
10852;BME280;5479;52.046;6.314;2023-03-15T11:56:18;101759.00;;;16.49;34.00
10852;BME280;5479;52.046;6.314;2023-03-15T11:58:59;101763.34;;;16.25;34.54
10852;BME280;5479;52.046;6.314;2023-03-15T12:01:29;101761.50;;;16.77;33.40
10852;BME280;5479;52.046;6.314;2023-03-15T12:04:39;101765.25;;;16.10;34.61
10852;BME280;5479;52.046;6.314;2023-03-15T12:10:30;101758.59;;;16.16;35.09
10852;BME280;5479;52.046;6.314;2023-03-15T12:13:16;101762.16;;;15.90;34.69
10852;BME280;5479;52.046;6.314;2023-03-15T12:15:47;101762.56;;;15.43;35.55
10852;BME280;5479;52.046;6.314;2023-03-15T12:18:21;101763.84;;;13.77;36.22
10852;BME280;5479;52.046;6.314;2023-03-15T12:21:20;101763.63;;;13.96;36.33
10852;BME280;5479;52.046;6.314;2023-03-15T12:23:59;101759.22;;;12.68;37.97
10852;BME280;5479;52.046;6.314;2023-03-15T12:26:39;101760.22;;;12.83;39.27
10852;BME280;5479;52.046;6.314;2023-03-15T12:29:16;101758.09;;;13.99;41.25
10852;BME280;5479;52.046;6.314;2023-03-15T12:31:58;101749.56;;;14.96;39.56
10852;BME280;5479;52.046;6.314;2023-03-15T12:34:41;101756.88;;;13.75;38.47
10852;BME280;5479;52.046;6.314;2023-03-15T12:37:14;101755.06;;;13.60;38.88
10852;BME280;5479;52.046;6.314;2023-03-15T12:39:46;101757.75;;;13.28;39.07
10852;BME280;5479;52.046;6.314;2023-03-15T12:45:51;101772.75;;;13.29;38.68
10852;BME280;5479;52.046;6.314;2023-03-15T12:48:24;101765.88;;;12.93;39.34
10852;BME280;5479;52.046;6.314;2023-03-15T12:51:03;101761.97;;;12.67;41.08
10852;BME280;5479;52.046;6.314;2023-03-15T12:53:45;101761.44;;;12.76;42.53
10852;BME280;5479;52.046;6.314;2023-03-15T12:56:32;101770.09;;;12.47;42.01
10852;BME280;5479;52.046;6.314;2023-03-15T12:59:12;101757.41;;;11.83;43.14
10852;BME280;5479;52.046;6.314;2023-03-15T13:02:24;101771.78;;;11.61;43.64
10852;BME280;5479;52.046;6.314;2023-03-15T13:04:59;101775.78;;;11.50;45.67
10852;BME280;5479;52.046;6.314;2023-03-15T13:07:36;101769.34;;;11.37;45.61
10852;BME280;5479;52.046;6.314;2023-03-15T13:16:20;101771.31;;;10.76;45.02
10852;BME280;5479;52.046;6.314;2023-03-15T13:18:59;101785.34;;;10.78;47.25
10852;BME280;5479;52.046;6.314;2023-03-15T13:21:34;101781.88;;;10.97;45.29
10852;BME280;5479;52.046;6.314;2023-03-15T13:24:10;101780.03;;;10.99;45.02
10852;BME280;5479;52.046;6.314;2023-03-15T13:26:47;101778.25;;;10.99;45.04
10852;BME280;5479;52.046;6.314;2023-03-15T13:29:18;101783.06;;;11.10;47.03
10852;BME280;5479;52.046;6.314;2023-03-15T13:31:59;101778.53;;;11.30;45.97
10852;BME280;5479;52.046;6.314;2023-03-15T13:34:30;101792.56;;;11.51;46.16